sensor_id;sensor_type;location;lat;lon;timestamp;pressure;altitude;pressure_sealevel;temperature;humidity
46710;BME280;32442;51.514;-0.178;2023-03-05T00:00:21;102332.75;;;21.47;33.16
46710;BME280;32442;51.514;-0.178;2023-03-05T00:02:48;102330.78;;;21.47;33.48
46710;BME280;32442;51.514;-0.178;2023-03-05T00:05:15;102327.66;;;21.49;33.09
46710;BME280;32442;51.514;-0.178;2023-03-05T00:07:42;102327.13;;;21.52;33.33
46710;BME280;32442;51.514;-0.178;2023-03-05T00:10:13;102327.13;;;21.52;32.99
46710;BME280;32442;51.514;-0.178;2023-03-05T00:12:43;102322.88;;;21.54;33.41
46710;BME280;32442;51.514;-0.178;2023-03-05T00:15:10;102323.47;;;21.56;33.40
46710;BME280;32442;51.514;-0.178;2023-03-05T00:17:37;102317.25;;;21.59;33.24
46710;BME280;32442;51.514;-0.178;2023-03-05T00:20:06;102313.59;;;21.59;33.58
46710;BME280;32442;51.514;-0.178;2023-03-05T00:22:35;102313.34;;;21.60;33.60
46710;BME280;32442;51.514;-0.178;2023-03-05T00:25:02;102312.22;;;21.61;33.26
46710;BME280;32442;51.514;-0.178;2023-03-05T00:27:29;102312.22;;;21.61;33.56
46710;BME280;32442;51.514;-0.178;2023-03-05T00:29:57;102307.72;;;21.60;33.36
46710;BME280;32442;51.514;-0.178;2023-03-05T00:32:24;102309.41;;;21.61;33.61
46710;BME280;32442;51.514;-0.178;2023-03-05T00:34:51;102306.84;;;21.60;34.01
46710;BME280;32442;51.514;-0.178;2023-03-05T00:37:18;102300.97;;;21.61;34.03
46710;BME280;32442;51.514;-0.178;2023-03-05T00:39:46;102304.63;;;21.62;33.75
46710;BME280;32442;51.514;-0.178;2023-03-05T00:42:13;102300.97;;;21.61;33.92
46710;BME280;32442;51.514;-0.178;2023-03-05T00:44:40;102301.81;;;21.62;34.08
46710;BME280;32442;51.514;-0.178;2023-03-05T00:47:07;102302.63;;;21.62;33.55
46710;BME280;32442;51.514;-0.178;2023-03-05T00:49:34;102289.13;;;21.59;33.47
46710;BME280;32442;51.514;-0.178;2023-03-05T00:52:01;102290.56;;;21.57;33.95
46710;BME280;32442;51.514;-0.178;2023-03-05T00:54:28;102290.25;;;21.53;33.61
46710;BME280;32442;51.514;-0.178;2023-03-05T00:56:59;102293.09;;;21.48;33.84
46710;BME280;32442;51.514;-0.178;2023-03-05T00:59:26;102282.13;;;21.47;33.89
46710;BME280;32442;51.514;-0.178;2023-03-05T01:01:53;102278.47;;;21.46;34.14
46710;BME280;32442;51.514;-0.178;2023-03-05T01:04:20;102280.75;;;21.39;33.88
46710;BME280;32442;51.514;-0.178;2023-03-05T01:06:47;102281.28;;;21.36;34.12
46710;BME280;32442;51.514;-0.178;2023-03-05T01:09:15;102273.41;;;21.33;34.29
46710;BME280;32442;51.514;-0.178;2023-03-05T01:11:42;102273.41;;;21.33;34.20
46710;BME280;32442;51.514;-0.178;2023-03-05T01:14:09;102272.31;;;21.29;34.37
46710;BME280;32442;51.514;-0.178;2023-03-05T01:16:36;102272.56;;;21.27;34.43
46710;BME280;32442;51.514;-0.178;2023-03-05T01:19:03;102274.53;;;21.22;34.68
46710;BME280;32442;51.514;-0.178;2023-03-05T01:21:31;102268.38;;;21.20;34.67
46710;BME280;32442;51.514;-0.178;2023-03-05T01:23:58;102252.34;;;21.15;34.37
46710;BME280;32442;51.514;-0.178;2023-03-05T01:26:25;102254.84;;;21.12;34.44
46710;BME280;32442;51.514;-0.178;2023-03-05T01:28:53;102254.25;;;21.10;34.52
46710;BME280;32442;51.514;-0.178;2023-03-05T01:31:20;102249.22;;;21.07;34.82
46710;BME280;32442;51.514;-0.178;2023-03-05T01:33:47;102249.50;;;21.05;34.63
46710;BME280;32442;51.514;-0.178;2023-03-05T01:36:17;102241.63;;;21.02;34.75
46710;BME280;32442;51.514;-0.178;2023-03-05T01:38:44;102235.69;;;20.99;35.03
46710;BME280;32442;51.514;-0.178;2023-03-05T01:41:13;102229.53;;;20.97;35.13
46710;BME280;32442;51.514;-0.178;2023-03-05T01:43:41;102228.97;;;20.95;35.36
46710;BME280;32442;51.514;-0.178;2023-03-05T01:48:39;102230.94;;;20.89;35.28
46710;BME280;32442;51.514;-0.178;2023-03-05T01:51:07;102211.81;;;20.86;35.36
46710;BME280;32442;51.514;-0.178;2023-03-05T01:53:35;102214.94;;;20.84;35.60
46710;BME280;32442;51.514;-0.178;2023-03-05T01:56:02;102211.53;;;20.82;35.61
46710;BME280;32442;51.514;-0.178;2023-03-05T01:58:29;102206.50;;;20.79;35.47
46710;BME280;32442;51.514;-0.178;2023-03-05T02:00:56;102207.03;;;20.76;35.54
46710;BME280;32442;51.514;-0.178;2023-03-05T02:03:24;102207.03;;;20.76;35.67
46710;BME280;32442;51.514;-0.178;2023-03-05T02:05:51;102205.06;;;20.72;35.76
46710;BME280;32442;51.514;-0.178;2023-03-05T02:08:20;102204.25;;;20.71;36.06
46710;BME280;32442;51.514;-0.178;2023-03-05T02:10:48;102207.59;;;20.68;35.78
46710;BME280;32442;51.514;-0.178;2023-03-05T02:13:19;102197.78;;;20.66;35.99
46710;BME280;32442;51.514;-0.178;2023-03-05T02:15:48;102195.50;;;20.63;35.97
46710;BME280;32442;51.514;-0.178;2023-03-05T02:18:16;102193.53;;;20.58;36.09
46710;BME280;32442;51.514;-0.178;2023-03-05T02:23:14;102183.44;;;20.52;36.20
46710;BME280;32442;51.514;-0.178;2023-03-05T02:25:42;102176.13;;;20.51;35.93
46710;BME280;32442;51.514;-0.178;2023-03-05T02:30:39;102179.75;;;20.47;36.52
46710;BME280;32442;51.514;-0.178;2023-03-05T02:33:07;102172.75;;;20.44;36.43
46710;BME280;32442;51.514;-0.178;2023-03-05T02:35:34;102173.88;;;20.43;36.44
46710;BME280;32442;51.514;-0.178;2023-03-05T02:38:02;102169.09;;;20.38;36.23
46710;BME280;32442;51.514;-0.178;2023-03-05T02:40:29;102168.81;;;20.35;36.42
46710;BME280;32442;51.514;-0.178;2023-03-05T02:42:56;102172.72;;;20.34;36.64
46710;BME280;32442;51.514;-0.178;2023-03-05T02:45:23;102162.88;;;20.31;36.12
46710;BME280;32442;51.514;-0.178;2023-03-05T02:47:50;102159.50;;;20.29;36.46
46710;BME280;32442;51.514;-0.178;2023-03-05T02:50:17;102160.03;;;20.26;36.27
46710;BME280;32442;51.514;-0.178;2023-03-05T02:52:44;102151.91;;;20.25;36.74
46710;BME280;32442;51.514;-0.178;2023-03-05T02:55:13;102147.97;;;20.21;36.39
46710;BME280;32442;51.514;-0.178;2023-03-05T02:57:40;102151.03;;;20.19;36.62
46710;BME280;32442;51.514;-0.178;2023-03-05T03:00:08;102145.69;;;20.18;36.44
46710;BME280;32442;51.514;-0.178;2023-03-05T03:02:36;102141.22;;;20.17;36.65
46710;BME280;32442;51.514;-0.178;2023-03-05T03:05:03;102136.16;;;20.14;36.87
46710;BME280;32442;51.514;-0.178;2023-03-05T03:07:30;102132.78;;;20.12;36.64
46710;BME280;32442;51.514;-0.178;2023-03-05T03:09:59;102130.25;;;20.10;36.53
46710;BME280;32442;51.514;-0.178;2023-03-05T03:12:26;102124.91;;;20.09;36.72
46710;BME280;32442;51.514;-0.178;2023-03-05T03:14:53;102123.78;;;20.05;37.06
46710;BME280;32442;51.514;-0.178;2023-03-05T03:17:20;102122.09;;;20.04;36.78
46710;BME280;32442;51.514;-0.178;2023-03-05T03:19:48;102119.84;;;20.01;36.67
46710;BME280;32442;51.514;-0.178;2023-03-05T03:22:15;102101.31;;;19.99;36.64
46710;BME280;32442;51.514;-0.178;2023-03-05T03:24:42;102108.34;;;19.97;36.98
46710;BME280;32442;51.514;-0.178;2023-03-05T03:27:10;102098.50;;;19.94;36.83
46710;BME280;32442;51.514;-0.178;2023-03-05T03:29:38;102094.31;;;19.92;37.08
46710;BME280;32442;51.514;-0.178;2023-03-05T03:32:05;102083.34;;;19.90;37.27
46710;BME280;32442;51.514;-0.178;2023-03-05T03:34:34;102080.25;;;19.87;37.30
46710;BME280;32442;51.514;-0.178;2023-03-05T03:37:01;102090.94;;;19.85;37.37
46710;BME280;32442;51.514;-0.178;2023-03-05T03:39:28;102082.78;;;19.83;36.90
46710;BME280;32442;51.514;-0.178;2023-03-05T03:41:55;102080.25;;;19.82;37.46
46710;BME280;32442;51.514;-0.178;2023-03-05T03:44:22;102079.13;;;19.78;37.18
46710;BME280;32442;51.514;-0.178;2023-03-05T03:46:50;102083.88;;;19.77;37.42
46710;BME280;32442;51.514;-0.178;2023-03-05T03:49:18;102079.69;;;19.75;37.30
46710;BME280;32442;51.514;-0.178;2023-03-05T03:51:46;102071.53;;;19.73;37.46
46710;BME280;32442;51.514;-0.178;2023-03-05T03:54:14;102074.59;;;19.72;37.05
46710;BME280;32442;51.514;-0.178;2023-03-05T03:56:41;102070.41;;;19.69;37.13
46710;BME280;32442;51.514;-0.178;2023-03-05T03:59:09;102067.84;;;19.68;37.59
46710;BME280;32442;51.514;-0.178;2023-03-05T04:01:36;102064.50;;;19.66;37.30
46710;BME280;32442;51.514;-0.178;2023-03-05T04:04:04;102064.78;;;19.64;37.65
46710;BME280;32442;51.514;-0.178;2023-03-05T04:06:32;102070.09;;;19.61;37.61
46710;BME280;32442;51.514;-0.178;2023-03-05T04:08:59;102061.09;;;19.59;37.55
46710;BME280;32442;51.514;-0.178;2023-03-05T04:11:26;102060.25;;;19.58;37.24
46710;BME280;32442;51.514;-0.178;2023-03-05T04:13:53;102053.25;;;19.56;37.26
46710;BME280;32442;51.514;-0.178;2023-03-05T04:16:20;102055.47;;;19.53;37.36
46710;BME280;32442;51.514;-0.178;2023-03-05T04:18:48;102049.03;;;19.53;37.44
46710;BME280;32442;51.514;-0.178;2023-03-05T04:21:15;102050.41;;;19.50;37.38
46710;BME280;32442;51.514;-0.178;2023-03-05T04:23:41;102046.78;;;19.50;37.86
46710;BME280;32442;51.514;-0.178;2023-03-05T04:26:08;102047.63;;;19.50;37.50
46710;BME280;32442;51.514;-0.178;2023-03-05T04:28:35;102045.38;;;19.47;37.83
46710;BME280;32442;51.514;-0.178;2023-03-05T04:31:03;102037.22;;;19.46;37.60
46710;BME280;32442;51.514;-0.178;2023-03-05T04:33:30;102042.28;;;19.44;37.56
46710;BME280;32442;51.514;-0.178;2023-03-05T04:35:57;102041.44;;;19.43;37.58
46710;BME280;32442;51.514;-0.178;2023-03-05T04:38:25;102042.78;;;19.41;38.00
46710;BME280;32442;51.514;-0.178;2023-03-05T04:40:51;102036.34;;;19.40;37.56
46710;BME280;32442;51.514;-0.178;2023-03-05T04:43:19;102032.41;;;19.36;37.60
46710;BME280;32442;51.514;-0.178;2023-03-05T04:45:46;102034.34;;;19.36;37.79
46710;BME280;32442;51.514;-0.178;2023-03-05T04:48:13;102029.03;;;19.34;37.90
46710;BME280;32442;51.514;-0.178;2023-03-05T04:50:42;102030.16;;;19.33;37.59
46710;BME280;32442;51.514;-0.178;2023-03-05T04:53:09;102034.31;;;19.31;38.07
46710;BME280;32442;51.514;-0.178;2023-03-05T04:55:36;102021.47;;;19.30;37.87
46710;BME280;32442;51.514;-0.178;2023-03-05T04:58:03;102026.47;;;19.28;38.04
46710;BME280;32442;51.514;-0.178;2023-03-05T05:00:30;102021.97;;;19.27;38.01
46710;BME280;32442;51.514;-0.178;2023-03-05T05:02:57;102016.69;;;19.25;37.92
46710;BME280;32442;51.514;-0.178;2023-03-05T05:05:25;102011.91;;;19.26;38.12
46710;BME280;32442;51.514;-0.178;2023-03-05T05:07:53;102005.47;;;19.25;37.88
46710;BME280;32442;51.514;-0.178;2023-03-05T05:10:20;102002.66;;;19.25;37.97
46710;BME280;32442;51.514;-0.178;2023-03-05T05:12:47;101996.75;;;19.22;37.99
46710;BME280;32442;51.514;-0.178;2023-03-05T05:15:14;101995.09;;;19.21;37.98
46710;BME280;32442;51.514;-0.178;2023-03-05T05:17:41;101990.84;;;19.18;38.31
46710;BME280;32442;51.514;-0.178;2023-03-05T05:20:09;101993.09;;;19.16;37.96
46710;BME280;32442;51.514;-0.178;2023-03-05T05:22:36;101990.56;;;19.15;38.04
46710;BME280;32442;51.514;-0.178;2023-03-05T05:25:04;101980.75;;;19.12;37.90
46710;BME280;32442;51.514;-0.178;2023-03-05T05:27:31;101982.97;;;19.10;38.32
46710;BME280;32442;51.514;-0.178;2023-03-05T05:29:58;101978.50;;;19.09;38.36
46710;BME280;32442;51.514;-0.178;2023-03-05T05:32:25;101975.97;;;19.07;38.12
46710;BME280;32442;51.514;-0.178;2023-03-05T05:34:53;101980.75;;;19.07;38.33
46710;BME280;32442;51.514;-0.178;2023-03-05T05:37:20;101975.41;;;19.05;38.05
46710;BME280;32442;51.514;-0.178;2023-03-05T05:39:47;101983.22;;;19.03;38.38
46710;BME280;32442;51.514;-0.178;2023-03-05T05:42:16;101980.41;;;19.03;38.38
46710;BME280;32442;51.514;-0.178;2023-03-05T05:44:43;101977.91;;;19.02;38.42
46710;BME280;32442;51.514;-0.178;2023-03-05T05:47:10;101978.16;;;19.00;38.10
46710;BME280;32442;51.514;-0.178;2023-03-05T05:49:37;101970.31;;;18.97;38.44
46710;BME280;32442;51.514;-0.178;2023-03-05T05:52:05;101967.53;;;18.97;38.08
46710;BME280;32442;51.514;-0.178;2023-03-05T05:54:32;101966.09;;;18.95;38.11
46710;BME280;32442;51.514;-0.178;2023-03-05T05:56:59;101958.00;;;18.93;38.12
46710;BME280;32442;51.514;-0.178;2023-03-05T05:59:26;101956.31;;;18.92;38.23
46710;BME280;32442;51.514;-0.178;2023-03-05T06:01:53;101960.22;;;18.91;38.17
46710;BME280;32442;51.514;-0.178;2023-03-05T06:04:21;101957.66;;;18.90;38.55
46710;BME280;32442;51.514;-0.178;2023-03-05T06:06:48;101956.00;;;18.89;38.14
46710;BME280;32442;51.514;-0.178;2023-03-05T06:09:15;101963.81;;;18.87;38.31
46710;BME280;32442;51.514;-0.178;2023-03-05T06:11:42;101957.38;;;18.86;38.43
46710;BME280;32442;51.514;-0.178;2023-03-05T06:14:10;101952.34;;;18.83;38.12
46710;BME280;32442;51.514;-0.178;2023-03-05T06:16:38;101960.72;;;18.83;38.21
46710;BME280;32442;51.514;-0.178;2023-03-05T06:19:05;101964.09;;;18.80;38.23
46710;BME280;32442;51.514;-0.178;2023-03-05T06:21:32;101962.41;;;18.79;38.43
46710;BME280;32442;51.514;-0.178;2023-03-05T06:23:59;101965.19;;;18.79;38.52
46710;BME280;32442;51.514;-0.178;2023-03-05T06:26:26;101960.13;;;18.76;38.41
46710;BME280;32442;51.514;-0.178;2023-03-05T06:28:53;101956.75;;;18.74;38.37
46710;BME280;32442;51.514;-0.178;2023-03-05T06:31:21;101949.47;;;18.73;38.45
46710;BME280;32442;51.514;-0.178;2023-03-05T06:33:51;101942.19;;;18.72;38.48
46710;BME280;32442;51.514;-0.178;2023-03-05T06:36:20;101952.81;;;18.70;38.31
46710;BME280;32442;51.514;-0.178;2023-03-05T06:38:47;101947.50;;;18.69;38.19
46710;BME280;32442;51.514;-0.178;2023-03-05T06:41:19;101943.84;;;18.68;38.37
46710;BME280;32442;51.514;-0.178;2023-03-05T06:43:47;101944.41;;;18.65;38.57
46710;BME280;32442;51.514;-0.178;2023-03-05T06:48:41;101934.31;;;18.64;38.52
46710;BME280;32442;51.514;-0.178;2023-03-05T06:53:39;101942.97;;;18.62;38.38
46710;BME280;32442;51.514;-0.178;2023-03-05T06:56:06;101944.94;;;18.62;38.42
46710;BME280;32442;51.514;-0.178;2023-03-05T06:58:33;101943.53;;;18.59;38.72
46710;BME280;32442;51.514;-0.178;2023-03-05T07:00:59;101942.66;;;18.59;38.59
46710;BME280;32442;51.514;-0.178;2023-03-05T07:03:27;101943.78;;;18.58;38.58
46710;BME280;32442;51.514;-0.178;2023-03-05T07:05:54;101943.78;;;18.58;38.79
46710;BME280;32442;51.514;-0.178;2023-03-05T07:08:21;101945.19;;;18.55;38.48
46710;BME280;32442;51.514;-0.178;2023-03-05T07:10:49;101938.72;;;18.55;38.73
46710;BME280;32442;51.514;-0.178;2023-03-05T07:13:16;101940.38;;;18.51;38.81
46710;BME280;32442;51.514;-0.178;2023-03-05T07:15:43;101941.22;;;18.51;38.60
46710;BME280;32442;51.514;-0.178;2023-03-05T07:18:10;101937.81;;;18.49;38.93
46710;BME280;32442;51.514;-0.178;2023-03-05T07:20:38;101934.19;;;18.49;38.45
46710;BME280;32442;51.514;-0.178;2023-03-05T07:23:05;101940.91;;;18.48;38.85
46710;BME280;32442;51.514;-0.178;2023-03-05T07:25:34;101941.16;;;18.46;38.53
46710;BME280;32442;51.514;-0.178;2023-03-05T07:28:02;101924.66;;;18.45;38.80
46710;BME280;32442;51.514;-0.178;2023-03-05T07:30:29;101931.38;;;18.44;38.65
46710;BME280;32442;51.514;-0.178;2023-03-05T07:32:56;101929.69;;;18.43;38.49
46710;BME280;32442;51.514;-0.178;2023-03-05T07:35:23;101921.28;;;18.43;38.80
46710;BME280;32442;51.514;-0.178;2023-03-05T07:37:50;101929.94;;;18.41;38.64
46710;BME280;32442;51.514;-0.178;2023-03-05T07:40:17;101926.31;;;18.41;38.57
46710;BME280;32442;51.514;-0.178;2023-03-05T07:42:44;101924.91;;;18.38;38.73
46710;BME280;32442;51.514;-0.178;2023-03-05T07:45:11;101924.06;;;18.38;38.85
46710;BME280;32442;51.514;-0.178;2023-03-05T07:47:38;101921.50;;;18.36;38.61
46710;BME280;32442;51.514;-0.178;2023-03-05T07:50:05;101926.25;;;18.36;38.64
46710;BME280;32442;51.514;-0.178;2023-03-05T07:52:32;101928.50;;;18.34;38.66
46710;BME280;32442;51.514;-0.178;2023-03-05T07:54:59;101923.16;;;18.32;38.51
46710;BME280;32442;51.514;-0.178;2023-03-05T07:57:26;101929.88;;;18.31;38.94
46710;BME280;32442;51.514;-0.178;2023-03-05T07:59:53;101921.47;;;18.31;38.87
46710;BME280;32442;51.514;-0.178;2023-03-05T08:02:20;101920.91;;;18.29;38.61
46710;BME280;32442;51.514;-0.178;2023-03-05T08:04:49;101926.78;;;18.28;38.57
46710;BME280;32442;51.514;-0.178;2023-03-05T08:07:16;101922.28;;;18.27;38.45
46710;BME280;32442;51.514;-0.178;2023-03-05T08:09:43;101923.13;;;18.27;38.69
46710;BME280;32442;51.514;-0.178;2023-03-05T08:12:09;101926.22;;;18.26;38.69
46710;BME280;32442;51.514;-0.178;2023-03-05T08:14:36;101916.69;;;18.27;38.91
46710;BME280;32442;51.514;-0.178;2023-03-05T08:17:04;101910.25;;;18.26;38.80
46710;BME280;32442;51.514;-0.178;2023-03-05T08:19:31;101905.50;;;18.27;38.93
46710;BME280;32442;51.514;-0.178;2023-03-05T08:21:58;101905.22;;;18.23;38.74
46710;BME280;32442;51.514;-0.178;2023-03-05T08:24:25;101915.56;;;18.22;38.62
46710;BME280;32442;51.514;-0.178;2023-03-05T08:26:55;101914.69;;;18.22;38.85
46710;BME280;32442;51.514;-0.178;2023-03-05T08:29:23;101920.59;;;18.20;38.68
46710;BME280;32442;51.514;-0.178;2023-03-05T08:31:50;101912.19;;;18.20;38.92
46710;BME280;32442;51.514;-0.178;2023-03-05T08:34:19;101911.34;;;18.20;38.76
46710;BME280;32442;51.514;-0.178;2023-03-05T08:36:46;101904.06;;;18.19;38.62
46710;BME280;32442;51.514;-0.178;2023-03-05T08:39:13;101903.22;;;18.18;38.86
46710;BME280;32442;51.514;-0.178;2023-03-05T08:41:40;101910.22;;;18.16;38.43
46710;BME280;32442;51.514;-0.178;2023-03-05T08:44:07;101905.47;;;18.16;38.51
46710;BME280;32442;51.514;-0.178;2023-03-05T08:46:34;101895.38;;;18.15;38.69
46710;BME280;32442;51.514;-0.178;2023-03-05T08:49:01;101901.22;;;18.14;38.46
46710;BME280;32442;51.514;-0.178;2023-03-05T08:51:27;101899.53;;;18.13;38.62
46710;BME280;32442;51.514;-0.178;2023-03-05T08:53:57;101904.31;;;18.12;38.29
46710;BME280;32442;51.514;-0.178;2023-03-05T08:56:24;101890.34;;;18.12;38.46
46710;BME280;32442;51.514;-0.178;2023-03-05T08:58:53;101896.19;;;18.11;38.44
46710;BME280;32442;51.514;-0.178;2023-03-05T09:01:22;101885.25;;;18.09;38.39
46710;BME280;32442;51.514;-0.178;2023-03-05T09:03:50;101883.56;;;18.08;38.54
46710;BME280;32442;51.514;-0.178;2023-03-05T09:06:16;101875.16;;;18.08;38.75
46710;BME280;32442;51.514;-0.178;2023-03-05T09:08:43;101873.22;;;18.09;38.46
46710;BME280;32442;51.514;-0.178;2023-03-05T09:11:10;101871.81;;;18.06;38.64
46710;BME280;32442;51.514;-0.178;2023-03-05T09:13:38;101875.72;;;18.05;38.43
46710;BME280;32442;51.514;-0.178;2023-03-05T09:16:06;101862.84;;;18.04;38.82
46710;BME280;32442;51.514;-0.178;2023-03-05T09:18:36;101862.28;;;18.02;38.56
46710;BME280;32442;51.514;-0.178;2023-03-05T09:21:06;101857.81;;;18.01;38.37
46710;BME280;32442;51.514;-0.178;2023-03-05T09:23:33;101865.34;;;18.01;38.61
46710;BME280;32442;51.514;-0.178;2023-03-05T09:26:03;101854.41;;;17.99;38.83
46710;BME280;32442;51.514;-0.178;2023-03-05T09:28:30;101853.59;;;17.99;38.51
46710;BME280;32442;51.514;-0.178;2023-03-05T09:30:57;101852.47;;;18.00;38.69
46710;BME280;32442;51.514;-0.178;2023-03-05T09:33:27;101854.72;;;17.98;38.80
46710;BME280;32442;51.514;-0.178;2023-03-05T09:35:53;101850.22;;;17.97;38.46
46710;BME280;32442;51.514;-0.178;2023-03-05T09:38:21;101845.47;;;17.97;38.72
46710;BME280;32442;51.514;-0.178;2023-03-05T09:43:23;101837.34;;;17.96;38.88
46710;BME280;32442;51.514;-0.178;2023-03-05T09:48:21;101819.44;;;17.92;38.71
46710;BME280;32442;51.514;-0.178;2023-03-05T09:50:53;101833.16;;;17.93;38.45
46710;BME280;32442;51.514;-0.178;2023-03-05T09:55:55;101836.50;;;17.95;38.46
46710;BME280;32442;51.514;-0.178;2023-03-05T09:58:28;101837.66;;;17.99;38.68
46710;BME280;32442;51.514;-0.178;2023-03-05T10:00:58;101838.50;;;18.00;38.39
46710;BME280;32442;51.514;-0.178;2023-03-05T10:03:29;101836.31;;;18.07;38.50
46710;BME280;32442;51.514;-0.178;2023-03-05T10:08:28;101822.69;;;18.20;39.16
46710;BME280;32442;51.514;-0.178;2023-03-05T10:10:57;101821.31;;;18.28;39.27
46710;BME280;32442;51.514;-0.178;2023-03-05T10:13:26;101814.66;;;18.34;39.47
46710;BME280;32442;51.514;-0.178;2023-03-05T10:21:00;101803.84;;;18.53;39.19
46710;BME280;32442;51.514;-0.178;2023-03-05T10:41:02;101786.28;;;18.83;34.26
46710;BME280;32442;51.514;-0.178;2023-03-05T10:46:00;101774.00;;;18.94;34.00
46710;BME280;32442;51.514;-0.178;2023-03-05T10:50:59;101771.78;;;19.06;34.05
46710;BME280;32442;51.514;-0.178;2023-03-05T10:58:30;101760.84;;;19.15;34.81
46710;BME280;32442;51.514;-0.178;2023-03-05T11:03:24;101751.88;;;19.23;34.63
46710;BME280;32442;51.514;-0.178;2023-03-05T11:08:24;101762.53;;;19.31;34.23
46710;BME280;32442;51.514;-0.178;2023-03-05T11:13:23;101740.13;;;19.41;34.75
46710;BME280;32442;51.514;-0.178;2023-03-05T11:18:21;101744.63;;;19.52;34.60
46710;BME280;32442;51.514;-0.178;2023-03-05T11:20:49;101729.78;;;19.57;34.37
46710;BME280;32442;51.514;-0.178;2023-03-05T11:30:59;101715.16;;;19.75;34.32
46710;BME280;32442;51.514;-0.178;2023-03-05T11:33:26;101714.31;;;19.79;34.18
46710;BME280;32442;51.514;-0.178;2023-03-05T11:36:08;101706.72;;;19.85;34.21
46710;BME280;32442;51.514;-0.178;2023-03-05T11:38:43;101709.47;;;19.90;34.33
46710;BME280;32442;51.514;-0.178;2023-03-05T11:41:12;101701.06;;;19.95;33.90
46710;BME280;32442;51.514;-0.178;2023-03-05T11:43:39;101703.00;;;19.99;34.26
46710;BME280;32442;51.514;-0.178;2023-03-05T11:46:08;101690.06;;;20.04;34.04
46710;BME280;32442;51.514;-0.178;2023-03-05T11:48:39;101695.97;;;20.07;33.85
46710;BME280;32442;51.514;-0.178;2023-03-05T11:53:39;101690.59;;;20.16;33.96
46710;BME280;32442;51.514;-0.178;2023-03-05T11:58:38;101684.38;;;20.24;33.61
46710;BME280;32442;51.514;-0.178;2023-03-05T12:01:10;101680.47;;;20.30;33.28
46710;BME280;32442;51.514;-0.178;2023-03-05T12:03:39;101684.91;;;20.36;33.49
46710;BME280;32442;51.514;-0.178;2023-03-05T12:08:37;101666.91;;;20.42;33.06
46710;BME280;32442;51.514;-0.178;2023-03-05T12:11:13;101664.34;;;20.46;33.44
46710;BME280;32442;51.514;-0.178;2023-03-05T12:13:44;101657.34;;;20.48;33.07
46710;BME280;32442;51.514;-0.178;2023-03-05T12:18:45;101648.28;;;20.56;32.96
46710;BME280;32442;51.514;-0.178;2023-03-05T12:21:16;101646.84;;;20.59;33.14
46710;BME280;32442;51.514;-0.178;2023-03-05T12:26:17;101632.50;;;20.65;33.20
46710;BME280;32442;51.514;-0.178;2023-03-05T12:28:53;101629.66;;;20.70;33.00
46710;BME280;32442;51.514;-0.178;2023-03-05T12:31:25;101603.78;;;20.73;32.95
46710;BME280;32442;51.514;-0.178;2023-03-05T12:33:52;101601.22;;;20.77;32.84
46710;BME280;32442;51.514;-0.178;2023-03-05T12:38:49;101595.28;;;20.83;32.67
46710;BME280;32442;51.514;-0.178;2023-03-05T12:48:47;101572.94;;;20.97;32.62
46710;BME280;32442;51.514;-0.178;2023-03-05T12:51:15;101569.81;;;20.99;32.48
46710;BME280;32442;51.514;-0.178;2023-03-05T12:53:53;101559.97;;;21.01;32.66
46710;BME280;32442;51.514;-0.178;2023-03-05T12:56:21;101561.34;;;21.04;32.48
46710;BME280;32442;51.514;-0.178;2023-03-05T12:58:52;101546.72;;;21.07;32.44
46710;BME280;32442;51.514;-0.178;2023-03-05T13:03:53;101523.91;;;21.13;32.07
46710;BME280;32442;51.514;-0.178;2023-03-05T13:11:22;101521.88;;;21.19;32.24
46710;BME280;32442;51.514;-0.178;2023-03-05T13:13:48;101516.25;;;21.19;31.68
46710;BME280;32442;51.514;-0.178;2023-03-05T13:18:46;101501.38;;;21.18;31.52
46710;BME280;32442;51.514;-0.178;2023-03-05T13:21:14;101496.59;;;21.19;31.18
46710;BME280;32442;51.514;-0.178;2023-03-05T13:28:43;101488.44;;;21.17;30.86
46710;BME280;32442;51.514;-0.178;2023-03-05T13:31:12;101477.53;;;21.16;30.54
46710;BME280;32442;51.514;-0.178;2023-03-05T13:33:39;101480.03;;;21.12;30.89
46710;BME280;32442;51.514;-0.178;2023-03-05T13:36:06;101477.22;;;21.12;30.54
46710;BME280;32442;51.514;-0.178;2023-03-05T13:38:35;101458.78;;;21.06;30.38
46710;BME280;32442;51.514;-0.178;2023-03-05T13:46:07;101448.50;;;20.97;30.42
46710;BME280;32442;51.514;-0.178;2023-03-05T13:48:34;101447.09;;;20.94;30.66
46710;BME280;32442;51.514;-0.178;2023-03-05T13:51:01;101438.22;;;20.87;30.42
46710;BME280;32442;51.514;-0.178;2023-03-05T13:53:32;101438.78;;;20.89;30.84
46710;BME280;32442;51.514;-0.178;2023-03-05T13:56:00;101431.47;;;20.88;31.09
46710;BME280;32442;51.514;-0.178;2023-03-05T14:03:30;101421.03;;;20.94;30.88
46710;BME280;32442;51.514;-0.178;2023-03-05T14:06:00;101417.66;;;20.92;29.41
46710;BME280;32442;51.514;-0.178;2023-03-05T14:08:28;101414.06;;;20.86;29.91
46710;BME280;32442;51.514;-0.178;2023-03-05T14:10:55;101412.31;;;20.90;30.67
46710;BME280;32442;51.514;-0.178;2023-03-05T14:13:23;101416.22;;;20.94;31.86
46710;BME280;32442;51.514;-0.178;2023-03-05T14:18:23;101406.19;;;21.12;32.01
46710;BME280;32442;51.514;-0.178;2023-03-05T14:28:30;101376.81;;;21.23;31.33
46710;BME280;32442;51.514;-0.178;2023-03-05T14:30:59;101379.00;;;21.26;31.79
46710;BME280;32442;51.514;-0.178;2023-03-05T14:33:27;101379.84;;;21.26;31.54
46710;BME280;32442;51.514;-0.178;2023-03-05T14:35:56;101370.06;;;21.24;31.63
46710;BME280;32442;51.514;-0.178;2023-03-05T14:38:26;101362.75;;;21.23;31.69
46710;BME280;32442;51.514;-0.178;2023-03-05T14:43:31;101352.81;;;21.30;31.42
46710;BME280;32442;51.514;-0.178;2023-03-05T14:46:00;101353.06;;;21.34;31.40
46710;BME280;32442;51.514;-0.178;2023-03-05T14:48:27;101337.31;;;21.33;31.12
46710;BME280;32442;51.514;-0.178;2023-03-05T14:50:54;101338.16;;;21.34;31.42
46710;BME280;32442;51.514;-0.178;2023-03-05T14:53:23;101322.66;;;21.36;31.22
46710;BME280;32442;51.514;-0.178;2023-03-05T14:55:53;101327.97;;;21.38;31.20